Time;durP1;ratioP1;P1;durP2;ratioP2;P2;SDS_P1;SDS_P2;PMS_P1;PMS_P2;Temp;Humidity;BMP_temperature;BMP_pressure;BME280_temperature;BME280_humidity;BME280_pressure;Samples;Min_cycle;Max_cycle;Signal;HPM_P1;HPM_P2
2023/04/09 00:00:19;;;;;;;9.55;6.60;;;8.40;99.90;;;;;;5020115;28;20050;-79
2023/04/09 00:02:46;;;;;;;8.68;6.50;;;8.40;99.90;;;;;;5030015;28;20050;-78
2023/04/09 00:05:13;;;;;;;7.97;6.03;;;8.40;99.90;;;;;;5023279;28;20046;-79
2023/04/09 00:07:40;;;;;;;8.15;7.10;;;8.40;99.90;;;;;;5022429;28;20045;-79
2023/04/09 00:10:10;;;;;;;11.37;7.20;;;8.40;99.90;;;;;;5025640;28;20057;-79
2023/04/09 00:12:37;;;;;;;9.90;7.45;;;8.40;99.90;;;;;;5026992;28;20089;-79
2023/04/09 00:15:04;;;;;;;12.00;8.27;;;8.30;99.90;;;;;;5030440;28;20092;-79
2023/04/09 00:17:31;;;;;;;11.95;7.70;;;8.30;99.90;;;;;;5023493;28;20064;-79
2023/04/09 00:19:57;;;;;;;12.40;7.97;;;8.20;99.90;;;;;;5021732;28;20091;-80
2023/04/09 00:22:24;;;;;;;8.90;7.43;;;8.20;99.90;;;;;;5023951;28;20510;-79
2023/04/09 00:24:51;;;;;;;11.25;8.05;;;8.20;99.90;;;;;;5018721;28;20046;-79
2023/04/09 00:27:18;;;;;;;11.02;7.35;;;8.10;99.90;;;;;;5030681;28;20133;-80
2023/04/09 00:29:44;;;;;;;9.85;7.40;;;8.10;99.90;;;;;;5027155;28;20136;-79
2023/04/09 00:32:11;;;;;;;11.90;7.28;;;8.00;99.90;;;;;;5014644;28;20065;-79
2023/04/09 00:34:38;;;;;;;10.65;7.68;;;8.00;99.90;;;;;;5026253;28;20049;-80
2023/04/09 00:37:05;;;;;;;8.93;7.53;;;8.00;99.90;;;;;;5029185;28;20145;-78
2023/04/09 00:39:31;;;;;;;9.88;7.43;;;7.90;99.90;;;;;;5029231;28;20046;-79
2023/04/09 00:42:01;;;;;;;8.88;6.88;;;7.90;99.90;;;;;;5024309;28;20046;-79
2023/04/09 00:44:28;;;;;;;8.52;7.20;;;7.90;99.90;;;;;;5029730;28;20104;-78
2023/04/09 00:46:56;;;;;;;9.10;6.80;;;7.90;99.90;;;;;;5029500;28;20139;-79
2023/04/09 00:49:25;;;;;;;9.65;7.65;;;7.90;99.90;;;;;;5025321;28;20064;-79
2023/04/09 00:51:52;;;;;;;14.10;8.23;;;8.00;99.90;;;;;;5024237;28;20094;-79
2023/04/09 00:54:19;;;;;;;11.23;6.63;;;8.00;99.90;;;;;;5016490;28;20403;-79
2023/04/09 00:56:46;;;;;;;9.93;7.70;;;8.00;99.90;;;;;;5021662;28;20111;-79
2023/04/09 00:59:14;;;;;;;11.00;7.72;;;8.00;99.90;;;;;;5028829;28;20103;-79
2023/04/09 01:02:17;;;;;;;10.98;6.78;;;8.10;99.90;;;;;;5021759;28;20057;-79
2023/04/09 01:04:45;;;;;;;10.07;6.75;;;8.10;99.90;;;;;;5030974;28;20132;-80
2023/04/09 01:07:46;;;;;;;8.65;7.40;;;8.10;99.90;;;;;;5027229;28;20055;-79
2023/04/09 01:10:27;;;;;;;8.32;7.15;;;8.10;99.90;;;;;;5021474;28;20132;-79
2023/04/09 01:13:06;;;;;;;16.00;7.78;;;8.10;99.90;;;;;;5020631;28;20148;-79
2023/04/09 01:15:37;;;;;;;11.35;6.78;;;8.10;99.90;;;;;;5022134;28;20072;-79
2023/04/09 01:18:04;;;;;;;10.35;6.90;;;8.10;99.90;;;;;;5018918;28;20084;-79
2023/04/09 01:20:38;;;;;;;12.25;7.03;;;8.00;99.90;;;;;;5026014;28;20053;-79
2023/04/09 01:23:48;;;;;;;8.70;7.18;;;8.00;99.90;;;;;;5018180;28;20136;-79
2023/04/09 01:26:43;;;;;;;10.00;7.85;;;8.00;99.90;;;;;;5001875;28;20113;-79
2023/04/09 01:29:10;;;;;;;11.10;7.25;;;7.90;99.90;;;;;;5025575;28;20102;-79
2023/04/09 01:31:38;;;;;;;9.30;7.35;;;7.80;99.90;;;;;;5025454;28;20136;-77
2023/04/09 01:34:08;;;;;;;9.85;7.60;;;7.80;99.90;;;;;;5027779;28;20052;-79
2023/04/09 01:36:35;;;;;;;10.55;7.93;;;7.80;99.90;;;;;;5022283;28;20049;-79
2023/04/09 01:39:02;;;;;;;9.30;7.03;;;7.70;99.90;;;;;;5019504;28;20056;-79
2023/04/09 01:41:32;;;;;;;9.23;7.35;;;7.60;99.90;;;;;;5013374;28;20129;-79
2023/04/09 01:44:01;;;;;;;10.90;7.43;;;7.60;99.90;;;;;;5021479;28;20048;-79
2023/04/09 01:46:28;;;;;;;9.30;7.80;;;7.50;99.90;;;;;;5021412;28;20046;-79
2023/04/09 01:48:56;;;;;;;10.80;7.47;;;7.50;99.90;;;;;;5024641;28;20056;-79
2023/04/09 01:51:23;;;;;;;7.93;7.13;;;7.40;99.90;;;;;;5025625;28;20137;-79
2023/04/09 01:53:50;;;;;;;10.00;6.47;;;7.30;99.90;;;;;;5027260;28;20124;-79
2023/04/09 01:56:16;;;;;;;9.85;7.40;;;7.30;99.90;;;;;;5019525;28;20049;-79
2023/04/09 01:58:43;;;;;;;11.02;7.30;;;7.30;99.90;;;;;;5019936;28;20046;-79
2023/04/09 02:01:19;;;;;;;11.10;7.00;;;7.20;99.90;;;;;;5021002;28;20077;-79
2023/04/09 02:03:50;;;;;;;9.95;6.75;;;7.20;99.90;;;;;;5018102;28;20099;-79
2023/04/09 02:06:43;;;;;;;8.40;7.38;;;7.10;99.90;;;;;;5019997;28;20104;-78
2023/04/09 02:09:14;;;;;;;10.88;7.93;;;7.10;99.90;;;;;;5017058;28;20088;-79
2023/04/09 02:11:42;;;;;;;9.23;7.45;;;7.00;99.90;;;;;;5016677;28;20085;-79
2023/04/09 02:14:11;;;;;;;10.13;7.50;;;7.00;99.90;;;;;;5022533;28;20624;-79
2023/04/09 02:16:39;;;;;;;11.38;7.65;;;7.00;99.90;;;;;;5028721;28;20076;-78
2023/04/09 02:19:06;;;;;;;9.70;7.30;;;6.90;99.90;;;;;;5026826;28;20103;-77
2023/04/09 02:21:32;;;;;;;11.38;7.60;;;6.90;99.90;;;;;;5022621;28;20132;-78
2023/04/09 02:23:59;;;;;;;10.15;7.97;;;6.90;99.90;;;;;;5023023;28;20175;-79
2023/04/09 02:26:26;;;;;;;9.85;7.90;;;6.90;99.90;;;;;;5017038;28;20041;-79
2023/04/09 02:28:52;;;;;;;9.02;7.25;;;6.80;99.90;;;;;;5023829;28;20046;-79
2023/04/09 02:31:20;;;;;;;9.88;8.02;;;6.70;99.90;;;;;;5019395;28;20050;-79
2023/04/09 02:33:46;;;;;;;10.93;7.82;;;6.70;99.90;;;;;;5015308;28;20054;-78
2023/04/09 02:36:13;;;;;;;9.45;7.80;;;6.70;99.90;;;;;;5023001;28;20046;-78
2023/04/09 02:38:41;;;;;;;9.13;7.18;;;6.70;99.90;;;;;;5020791;28;20431;-78
2023/04/09 02:41:08;;;;;;;10.00;8.20;;;6.60;99.90;;;;;;5027760;28;20061;-78
2023/04/09 02:43:35;;;;;;;13.80;8.73;;;6.60;99.90;;;;;;5026716;28;20061;-79
2023/04/09 02:46:02;;;;;;;11.07;7.72;;;6.60;99.90;;;;;;5028291;28;20049;-79
2023/04/09 02:48:29;;;;;;;12.95;8.63;;;6.50;99.90;;;;;;5021644;28;20100;-79
2023/04/09 02:50:56;;;;;;;9.85;8.23;;;6.50;99.90;;;;;;5022793;28;20073;-78
2023/04/09 02:53:23;;;;;;;10.25;8.60;;;6.50;99.90;;;;;;5029451;28;20073;-79
2023/04/09 02:55:49;;;;;;;11.63;8.80;;;6.50;99.90;;;;;;5020488;28;20132;-79
2023/04/09 02:58:16;;;;;;;10.93;8.73;;;6.40;99.90;;;;;;5023261;28;20052;-78
2023/04/09 03:00:42;;;;;;;11.63;9.20;;;6.40;99.90;;;;;;5023945;28;20046;-79
2023/04/09 03:03:09;;;;;;;13.35;9.23;;;6.40;99.90;;;;;;5017029;28;20516;-79
2023/04/09 03:05:37;;;;;;;13.60;9.63;;;6.40;99.90;;;;;;5026303;28;20049;-79
2023/04/09 03:08:04;;;;;;;14.07;10.00;;;6.30;99.90;;;;;;5028279;28;20073;-79
2023/04/09 03:10:31;;;;;;;14.77;10.77;;;6.30;99.90;;;;;;5024253;28;20050;-79
2023/04/09 03:12:58;;;;;;;13.95;11.15;;;6.30;99.90;;;;;;5031590;28;20153;-78
2023/04/09 03:15:24;;;;;;;20.23;11.73;;;6.30;99.90;;;;;;5025561;28;20054;-79
2023/04/09 03:17:51;;;;;;;32.40;11.32;;;6.30;99.90;;;;;;5024947;28;20046;-79
2023/04/09 03:20:18;;;;;;;18.00;11.13;;;6.30;99.90;;;;;;5019068;28;20081;-78
2023/04/09 03:22:44;;;;;;;13.48;10.00;;;6.20;99.90;;;;;;5026961;28;20080;-79
2023/04/09 03:25:11;;;;;;;13.68;10.77;;;6.20;99.90;;;;;;5018698;28;20149;-78
2023/04/09 03:27:38;;;;;;;14.00;10.82;;;6.20;99.90;;;;;;5023151;28;20069;-79
2023/04/09 03:30:05;;;;;;;14.45;10.60;;;6.20;99.90;;;;;;5027751;28;20095;-78
2023/04/09 03:32:32;;;;;;;14.50;10.70;;;6.10;99.90;;;;;;5027715;28;20742;-79
2023/04/09 03:34:58;;;;;;;17.25;11.18;;;6.10;99.90;;;;;;5031559;28;20048;-78
2023/04/09 03:37:25;;;;;;;14.60;10.52;;;6.10;99.90;;;;;;5024775;28;20057;-79
2023/04/09 03:39:52;;;;;;;14.50;11.27;;;6.10;99.90;;;;;;5024766;28;20053;-77
2023/04/09 03:42:18;;;;;;;15.45;11.68;;;6.00;99.90;;;;;;5019247;28;20097;-80
2023/04/09 03:44:45;;;;;;;16.52;12.07;;;6.00;99.90;;;;;;5024933;28;20042;-79
2023/04/09 03:47:12;;;;;;;15.60;11.95;;;6.00;99.90;;;;;;5019867;28;20084;-79
2023/04/09 03:49:39;;;;;;;17.20;12.25;;;6.00;99.90;;;;;;5017544;28;20193;-79
2023/04/09 03:52:06;;;;;;;15.38;11.95;;;6.00;99.90;;;;;;5026917;28;20505;-79
2023/04/09 03:54:33;;;;;;;16.27;12.00;;;6.00;99.90;;;;;;5028678;28;20140;-79
2023/04/09 03:57:00;;;;;;;17.58;13.38;;;5.90;99.90;;;;;;5028219;28;20045;-79
2023/04/09 03:59:27;;;;;;;18.50;14.15;;;5.90;99.90;;;;;;5022622;28;20056;-78
2023/04/09 04:01:53;;;;;;;20.90;15.32;;;5.90;99.90;;;;;;5027992;28;20132;-79
2023/04/09 04:04:20;;;;;;;20.52;15.43;;;5.90;99.90;;;;;;5019470;28;20072;-79
2023/04/09 04:06:49;;;;;;;19.27;14.10;;;5.90;99.90;;;;;;5021701;28;20042;-80
2023/04/09 04:09:16;;;;;;;24.23;16.92;;;5.90;99.90;;;;;;5023916;28;20073;-78
2023/04/09 04:11:43;;;;;;;22.00;16.45;;;5.80;99.90;;;;;;5017654;28;20540;-79
2023/04/09 04:14:09;;;;;;;20.92;16.67;;;5.80;99.90;;;;;;5024221;28;20061;-79
2023/04/09 04:16:36;;;;;;;26.17;17.95;;;5.80;99.90;;;;;;5021041;28;20136;-79
2023/04/09 04:19:03;;;;;;;21.52;15.60;;;5.80;99.90;;;;;;5030982;28;20473;-79
2023/04/09 04:21:30;;;;;;;22.63;16.42;;;5.80;99.90;;;;;;5023182;28;20068;-79
2023/04/09 04:23:57;;;;;;;22.17;15.32;;;5.80;99.90;;;;;;5025645;28;20144;-79
2023/04/09 04:26:24;;;;;;;21.50;15.48;;;5.70;99.90;;;;;;5026206;28;20149;-79
2023/04/09 04:28:50;;;;;;;20.90;15.73;;;5.80;99.90;;;;;;5021494;28;20069;-80
2023/04/09 04:31:17;;;;;;;20.38;15.95;;;5.70;99.90;;;;;;5023047;28;20056;-79
2023/04/09 04:33:44;;;;;;;22.58;16.17;;;5.70;99.90;;;;;;5019750;28;20053;-79
2023/04/09 04:36:12;;;;;;;21.98;16.70;;;5.70;99.90;;;;;;5019657;28;20050;-79
2023/04/09 04:38:40;;;;;;;24.33;17.45;;;5.70;99.90;;;;;;5024241;28;20100;-79
2023/04/09 04:41:09;;;;;;;24.42;17.95;;;5.60;99.90;;;;;;5015910;28;20497;-79
2023/04/09 04:43:36;;;;;;;26.48;18.23;;;5.60;99.90;;;;;;5026103;28;20089;-79
2023/04/09 04:46:02;;;;;;;23.23;17.20;;;5.60;99.90;;;;;;5030962;28;20406;-79
2023/04/09 04:48:30;;;;;;;23.77;17.73;;;5.60;99.90;;;;;;5025417;28;20058;-80
2023/04/09 04:50:59;;;;;;;24.05;17.98;;;5.50;99.90;;;;;;5018910;28;20052;-78
2023/04/09 04:53:27;;;;;;;22.75;16.30;;;5.50;99.90;;;;;;5021566;28;20059;-79
2023/04/09 04:55:53;;;;;;;30.65;20.08;;;5.50;99.90;;;;;;5022004;28;20049;-79
2023/04/09 04:58:20;;;;;;;31.58;21.58;;;5.40;99.90;;;;;;5015930;28;20054;-79
2023/04/09 05:00:47;;;;;;;24.85;18.73;;;5.40;99.90;;;;;;5024723;28;20050;-79
2023/04/09 05:03:14;;;;;;;25.48;18.67;;;5.40;99.90;;;;;;5017989;28;20073;-79
2023/04/09 05:05:42;;;;;;;24.83;17.75;;;5.40;99.90;;;;;;5021174;28;20049;-79
2023/04/09 05:08:08;;;;;;;26.65;18.27;;;5.40;99.90;;;;;;5023751;28;20046;-79
2023/04/09 05:10:35;;;;;;;23.95;16.77;;;5.40;99.90;;;;;;5028947;28;20482;-78
2023/04/09 05:13:02;;;;;;;24.60;17.15;;;5.40;99.90;;;;;;5022117;28;20049;-80
2023/04/09 05:15:29;;;;;;;24.35;18.58;;;5.40;99.90;;;;;;5022406;28;20057;-80
2023/04/09 05:17:56;;;;;;;23.88;18.05;;;5.40;99.90;;;;;;5024272;28;20052;-79
2023/04/09 05:20:23;;;;;;;25.67;17.88;;;5.30;99.90;;;;;;5017209;28;20110;-79
2023/04/09 05:22:51;;;;;;;27.77;19.10;;;5.40;99.90;;;;;;5020984;28;20144;-78
2023/04/09 05:25:18;;;;;;;23.40;17.67;;;5.40;99.90;;;;;;5020941;28;20049;-79
2023/04/09 05:27:44;;;;;;;27.08;17.77;;;5.30;99.90;;;;;;5015086;28;20129;-80
2023/04/09 05:30:12;;;;;;;20.42;17.20;;;5.40;99.90;;;;;;5023516;28;20509;-79
2023/04/09 05:32:39;;;;;;;18.25;15.10;;;5.40;99.90;;;;;;5023834;28;20049;-79
2023/04/09 05:35:06;;;;;;;20.80;15.65;;;5.40;99.90;;;;;;5026034;28;20137;-79
2023/04/09 05:37:32;;;;;;;19.80;15.55;;;5.40;99.90;;;;;;5020619;28;20442;-80
2023/04/09 05:39:59;;;;;;;21.00;15.82;;;5.40;99.90;;;;;;5026385;28;20045;-80
2023/04/09 05:42:26;;;;;;;20.95;15.65;;;5.50;99.90;;;;;;5017939;28;20490;-79
2023/04/09 05:44:52;;;;;;;20.05;15.52;;;5.50;99.90;;;;;;5020046;28;20492;-79
2023/04/09 05:47:19;;;;;;;22.52;16.98;;;5.50;99.90;;;;;;5021561;28;20129;-80
2023/04/09 05:49:46;;;;;;;22.73;16.77;;;5.50;99.90;;;;;;5016919;28;20124;-78
2023/04/09 05:52:15;;;;;;;22.83;17.60;;;5.50;99.90;;;;;;5019191;28;20049;-80
2023/04/09 05:54:41;;;;;;;22.45;16.42;;;5.60;99.90;;;;;;5021959;28;20053;-79
2023/04/09 05:57:08;;;;;;;20.98;16.30;;;5.50;99.90;;;;;;5024953;28;20077;-79
2023/04/09 05:59:35;;;;;;;22.15;15.70;;;5.50;99.90;;;;;;5021756;28;20046;-79
2023/04/09 06:02:01;;;;;;;22.70;15.75;;;5.60;99.90;;;;;;5020788;28;20552;-79
2023/04/09 06:04:28;;;;;;;19.55;15.30;;;5.60;99.90;;;;;;5022394;28;20046;-80
2023/04/09 06:06:58;;;;;;;20.40;14.60;;;5.60;99.90;;;;;;5021215;28;20049;-79
2023/04/09 06:09:26;;;;;;;18.52;13.68;;;5.70;99.90;;;;;;5023424;28;20046;-79
2023/04/09 06:11:53;;;;;;;21.58;15.73;;;5.70;99.90;;;;;;5021171;28;20109;-79
2023/04/09 06:14:20;;;;;;;20.48;14.82;;;5.70;99.90;;;;;;5020561;28;20343;-79
2023/04/09 06:16:46;;;;;;;19.45;14.77;;;5.80;99.90;;;;;;5029569;28;20054;-78
2023/04/09 06:19:15;;;;;;;20.40;15.68;;;5.80;99.90;;;;;;5021922;28;20109;-79
2023/04/09 06:21:42;;;;;;;21.60;16.45;;;5.80;99.90;;;;;;5023475;28;20069;-79
2023/04/09 06:24:09;;;;;;;20.38;14.93;;;5.90;99.90;;;;;;5035439;28;20042;-78
2023/04/09 06:26:35;;;;;;;20.60;15.20;;;5.90;99.90;;;;;;5030166;28;20109;-79
2023/04/09 06:29:02;;;;;;;20.15;15.43;;;5.90;99.90;;;;;;5021030;28;20468;-79
2023/04/09 06:31:29;;;;;;;22.67;15.48;;;6.00;99.90;;;;;;5024753;28;20136;-78
2023/04/09 06:33:55;;;;;;;26.90;17.50;;;6.00;99.90;;;;;;5027475;28;20104;-79
2023/04/09 06:36:22;;;;;;;23.17;17.88;;;6.00;99.90;;;;;;5021678;28;20177;-79
2023/04/09 06:38:49;;;;;;;26.02;18.83;;;6.10;99.90;;;;;;5026993;28;20525;-79
2023/04/09 06:41:19;;;;;;;27.48;21.33;;;6.10;99.90;;;;;;5025151;28;20049;-79
2023/04/09 06:43:45;;;;;;;37.33;27.90;;;6.20;99.90;;;;;;5019583;28;20144;-79
2023/04/09 06:46:16;;;;;;;32.65;25.95;;;6.20;99.90;;;;;;5029026;28;20092;-78
2023/04/09 06:48:43;;;;;;;;;;;6.20;99.90;;;;;;5031624;28;20045;-79
2023/04/09 06:51:10;;;;;;;35.70;25.27;;;6.30;99.90;;;;;;5033065;28;19920;-78
2023/04/09 06:53:38;;;;;;;35.35;25.83;;;6.30;99.90;;;;;;5024842;28;20554;-79
2023/04/09 06:56:06;;;;;;;34.00;26.40;;;6.40;99.90;;;;;;5027201;28;20475;-79
2023/04/09 06:58:32;;;;;;;32.22;24.77;;;6.40;99.90;;;;;;5020561;28;20144;-80
2023/04/09 07:00:59;;;;;;;35.53;27.27;;;6.40;99.90;;;;;;5025781;28;20092;-79
2023/04/09 07:03:27;;;;;;;33.75;25.60;;;6.50;99.90;;;;;;5025693;28;20046;-77
2023/04/09 07:05:55;;;;;;;33.80;24.63;;;6.50;99.90;;;;;;5018937;28;20049;-80
2023/04/09 07:08:22;;;;;;;37.08;26.52;;;6.60;99.90;;;;;;5025273;28;20049;-78
2023/04/09 07:10:49;;;;;;;33.95;25.52;;;6.60;99.90;;;;;;5029406;28;20084;-80
2023/04/09 07:13:16;;;;;;;37.92;26.00;;;6.70;99.90;;;;;;5033452;28;20057;-80
2023/04/09 07:15:42;;;;;;;33.53;25.58;;;6.70;99.90;;;;;;5025692;28;20128;-80
2023/04/09 07:18:09;;;;;;;32.10;26.08;;;6.80;99.90;;;;;;5028246;28;20513;-79
2023/04/09 07:20:36;;;;;;;33.70;25.08;;;6.80;99.90;;;;;;5024801;28;20046;-79
2023/04/09 07:23:03;;;;;;;34.92;25.73;;;6.90;99.90;;;;;;5023455;28;20458;-78
2023/04/09 07:25:30;;;;;;;29.63;23.73;;;6.90;99.90;;;;;;5026927;28;20137;-80
2023/04/09 07:27:57;;;;;;;32.05;24.10;;;7.00;99.90;;;;;;5021993;28;20100;-78
2023/04/09 07:30:24;;;;;;;30.02;24.00;;;7.00;99.90;;;;;;5025355;28;20053;-79
2023/04/09 07:32:51;;;;;;;30.40;24.02;;;7.10;99.90;;;;;;5025162;28;20424;-79
2023/04/09 07:35:18;;;;;;;33.47;24.65;;;7.10;99.90;;;;;;5023884;28;20544;-80
2023/04/09 07:37:45;;;;;;;28.23;23.17;;;7.10;99.90;;;;;;5027610;28;20050;-78
2023/04/09 07:40:11;;;;;;;30.50;23.85;;;7.20;99.90;;;;;;5027489;28;20105;-80
2023/04/09 07:42:38;;;;;;;31.05;23.73;;;7.20;99.90;;;;;;5028134;28;20038;-80
2023/04/09 07:45:06;;;;;;;30.55;24.20;;;7.30;99.90;;;;;;5023937;28;20048;-79
2023/04/09 07:47:33;;;;;;;32.13;23.85;;;7.30;99.90;;;;;;5025858;28;20061;-79
2023/04/09 07:50:00;;;;;;;31.33;24.33;;;7.40;99.90;;;;;;5024620;28;20064;-80
2023/04/09 07:52:27;;;;;;;28.27;22.88;;;7.40;99.90;;;;;;5019377;28;20049;-80
2023/04/09 07:54:54;;;;;;;31.02;22.83;;;7.40;99.90;;;;;;5028800;28;20088;-80
2023/04/09 07:57:21;;;;;;;30.02;22.60;;;7.50;99.90;;;;;;5021863;28;20072;-80
2023/04/09 07:59:47;;;;;;;28.48;23.15;;;7.50;99.90;;;;;;5021257;28;20106;-81
2023/04/09 08:02:14;;;;;;;34.85;22.92;;;7.60;99.90;;;;;;5033015;28;20128;-80
2023/04/09 08:04:41;;;;;;;29.38;22.55;;;7.60;99.90;;;;;;5030525;28;20420;-80
2023/04/09 08:07:08;;;;;;;30.05;21.42;;;7.70;99.90;;;;;;5022854;28;20095;-79
2023/04/09 08:09:35;;;;;;;26.52;20.77;;;7.70;99.90;;;;;;5023853;28;20572;-80
2023/04/09 08:12:03;;;;;;;24.05;19.45;;;7.70;99.90;;;;;;5027086;28;20046;-80
2023/04/09 08:14:29;;;;;;;21.67;18.30;;;7.70;99.90;;;;;;5019272;28;20494;-79
2023/04/09 08:16:56;;;;;;;26.20;19.63;;;7.80;99.90;;;;;;5025559;28;20048;-78
2023/04/09 08:19:23;;;;;;;23.35;18.88;;;7.80;99.90;;;;;;5021155;28;20429;-78
2023/04/09 08:21:51;;;;;;;25.77;19.95;;;7.90;99.90;;;;;;5018576;28;20046;-79
2023/04/09 08:24:18;;;;;;;25.40;20.45;;;7.90;99.90;;;;;;5029855;28;20095;-80
2023/04/09 08:26:45;;;;;;;23.00;17.92;;;8.00;99.90;;;;;;5029254;28;20057;-80
2023/04/09 08:29:12;;;;;;;22.13;17.13;;;8.00;99.90;;;;;;5025246;28;20042;-79
2023/04/09 08:31:39;;;;;;;20.75;15.52;;;8.00;99.90;;;;;;5022142;28;20060;-79
2023/04/09 08:34:06;;;;;;;20.98;16.42;;;8.10;99.90;;;;;;5027404;28;20548;-80
2023/04/09 08:36:34;;;;;;;21.52;17.30;;;8.10;99.90;;;;;;5023609;28;20242;-79
2023/04/09 08:39:01;;;;;;;22.40;16.65;;;8.20;99.90;;;;;;5019876;28;20064;-80
2023/04/09 08:41:28;;;;;;;23.10;17.10;;;8.20;99.90;;;;;;5025240;28;20465;-80
2023/04/09 08:43:56;;;;;;;22.83;17.17;;;8.20;99.90;;;;;;5020125;28;20046;-80
2023/04/09 08:46:26;;;;;;;22.58;17.50;;;8.30;99.90;;;;;;5025623;28;20556;-80
2023/04/09 08:48:53;;;;;;;21.77;17.08;;;8.30;99.90;;;;;;5028460;28;20049;-80
2023/04/09 08:51:23;;;;;;;20.95;16.52;;;8.30;99.90;;;;;;5030842;28;20131;-80
2023/04/09 08:53:59;;;;;;;20.80;17.70;;;8.40;99.90;;;;;;5024264;28;20045;-80
2023/04/09 08:56:29;;;;;;;21.83;17.70;;;8.40;99.90;;;;;;5028230;28;20052;-80
2023/04/09 08:58:56;;;;;;;23.67;18.13;;;8.50;99.90;;;;;;5031157;28;20046;-78
2023/04/09 09:01:28;;;;;;;22.65;17.85;;;8.50;99.90;;;;;;5020466;28;20045;-79
2023/04/09 09:04:02;;;;;;;23.13;18.73;;;8.50;99.90;;;;;;5024831;28;20088;-78
2023/04/09 09:06:40;;;;;;;21.65;18.13;;;8.60;99.90;;;;;;5018674;28;20042;-80
2023/04/09 09:09:12;;;;;;;22.25;18.40;;;8.60;99.90;;;;;;5026414;28;20042;-80
2023/04/09 09:11:51;;;;;;;21.52;17.90;;;8.60;99.90;;;;;;5024075;28;20124;-80
2023/04/09 09:14:18;;;;;;;20.02;16.15;;;8.70;99.90;;;;;;5031823;28;20457;-79
2023/04/09 09:16:54;;;;;;;20.92;16.23;;;8.70;99.90;;;;;;5024176;28;20041;-78
2023/04/09 09:19:24;;;;;;;20.80;16.42;;;8.80;99.90;;;;;;5031604;28;20045;-80
2023/04/09 09:22:03;;;;;;;21.00;16.50;;;8.90;99.90;;;;;;5023263;28;20128;-80
2023/04/09 09:24:31;;;;;;;18.38;16.38;;;8.90;99.90;;;;;;5020158;28;20042;-79
2023/04/09 09:26:58;;;;;;;18.83;15.13;;;8.90;99.90;;;;;;5024597;28;20609;-80
2023/04/09 09:29:25;;;;;;;15.90;13.93;;;9.00;99.90;;;;;;5019783;28;20132;-80
2023/04/09 09:31:53;;;;;;;17.67;13.88;;;9.00;99.90;;;;;;5017974;28;20560;-80
2023/04/09 09:34:22;;;;;;;16.80;14.00;;;9.10;99.90;;;;;;5023059;28;20081;-82
2023/04/09 09:36:49;;;;;;;17.58;14.27;;;9.10;99.90;;;;;;5016751;28;20077;-79
2023/04/09 09:39:16;;;;;;;15.13;13.27;;;9.20;99.90;;;;;;5023358;28;20099;-81
2023/04/09 09:41:44;;;;;;;18.13;12.98;;;9.20;99.90;;;;;;5026535;28;20061;-79
2023/04/09 09:44:28;;;;;;;21.90;15.05;;;9.20;99.90;;;;;;5027243;28;20425;-80
2023/04/09 09:46:56;;;;;;;16.88;14.35;;;9.30;99.90;;;;;;5023147;28;20100;-79
2023/04/09 09:49:23;;;;;;;16.50;13.57;;;9.30;99.90;;;;;;5035042;28;20266;-80
2023/04/09 09:51:50;;;;;;;16.85;13.07;;;9.30;99.90;;;;;;5024261;28;20424;-79
2023/04/09 09:54:21;;;;;;;20.17;14.80;;;9.40;99.90;;;;;;5034255;28;20077;-80
2023/04/09 09:56:51;;;;;;;17.10;13.77;;;9.40;99.90;;;;;;5029184;28;20076;-80
2023/04/09 09:59:22;;;;;;;;;;;9.50;99.90;;;;;;5026700;28;20050;-80
2023/04/09 10:02:03;;;;;;;17.10;13.27;;;9.50;99.90;;;;;;5024937;28;19964;-81
2023/04/09 10:04:34;;;;;;;16.40;13.68;;;9.70;99.90;;;;;;5035102;28;20041;-80
2023/04/09 10:07:04;;;;;;;17.08;14.63;;;9.80;99.90;;;;;;5031783;28;20049;-81
2023/04/09 10:09:34;;;;;;;19.10;15.55;;;9.90;99.90;;;;;;5026001;28;20042;-78
2023/04/09 10:12:02;;;;;;;15.33;13.40;;;10.00;99.90;;;;;;5030821;28;20085;-81
2023/04/09 10:14:30;;;;;;;17.73;12.95;;;10.10;99.90;;;;;;5026538;28;20136;-79
2023/04/09 10:16:57;;;;;;;13.35;11.13;;;10.10;99.90;;;;;;5023838;28;20128;-79
2023/04/09 10:19:24;;;;;;;13.95;11.07;;;10.10;99.90;;;;;;5028008;28;20072;-80
2023/04/09 10:22:00;;;;;;;14.38;11.20;;;10.10;99.90;;;;;;5024088;28;20072;-80
2023/04/09 10:24:27;;;;;;;14.00;11.15;;;10.10;99.90;;;;;;5023888;28;20045;-80
2023/04/09 10:26:55;;;;;;;15.07;12.20;;;10.10;99.90;;;;;;5029189;28;20089;-80
2023/04/09 10:29:28;;;;;;;14.77;12.18;;;10.20;99.90;;;;;;5035504;28;20042;-80
2023/04/09 10:32:05;;;;;;;14.77;12.05;;;10.20;99.90;;;;;;5034055;28;20134;-80
2023/04/09 10:34:39;;;;;;;15.23;11.35;;;10.20;99.90;;;;;;5033888;28;20103;-80
2023/04/09 10:37:13;;;;;;;13.38;11.10;;;10.30;99.90;;;;;;5027436;28;20060;-80
2023/04/09 10:39:43;;;;;;;15.57;10.93;;;10.30;99.90;;;;;;5031081;28;20045;-80
2023/04/09 10:42:14;;;;;;;13.40;9.18;;;10.30;99.90;;;;;;5028371;28;20092;-80
2023/04/09 10:44:41;;;;;;;12.07;9.85;;;10.40;99.90;;;;;;5022346;28;20088;-80
2023/04/09 10:47:09;;;;;;;11.20;9.27;;;10.40;99.90;;;;;;5028790;28;20045;-79
2023/04/09 10:49:38;;;;;;;11.60;9.75;;;10.40;99.90;;;;;;5033198;28;20092;-78
2023/04/09 10:52:09;;;;;;;10.27;9.10;;;10.50;99.90;;;;;;5035055;28;20060;-80
2023/04/09 10:54:45;;;;;;;12.63;10.43;;;10.60;99.90;;;;;;5032043;28;20624;-79
2023/04/09 10:57:21;;;;;;;11.60;10.10;;;10.60;99.90;;;;;;5030542;28;20045;-80
2023/04/09 10:59:53;;;;;;;11.30;9.68;;;10.70;99.90;;;;;;5026202;28;20137;-80
2023/04/09 11:02:39;;;;;;;12.30;8.98;;;10.70;99.90;;;;;;5017594;28;20506;-78
2023/04/09 11:05:31;;;;;;;10.13;7.55;;;10.70;99.90;;;;;;5024163;28;20056;-77
2023/04/09 11:08:10;;;;;;;9.13;7.15;;;10.80;99.90;;;;;;5028802;28;20069;-80
2023/04/09 11:10:39;;;;;;;8.50;7.37;;;10.80;99.90;;;;;;5025579;28;20128;-80
2023/04/09 11:13:11;;;;;;;9.70;7.50;;;10.90;99.90;;;;;;5023631;28;20154;-80
2023/04/09 11:15:38;;;;;;;10.15;7.15;;;10.90;99.90;;;;;;5030115;28;20128;-78
2023/04/09 11:18:12;;;;;;;7.05;6.35;;;10.90;99.90;;;;;;5022378;28;20061;-79
2023/04/09 11:20:39;;;;;;;12.48;9.73;;;10.90;99.90;;;;;;5021988;28;20125;-78
2023/04/09 11:23:06;;;;;;;9.70;7.05;;;11.00;99.90;;;;;;5022359;28;20153;-77
2023/04/09 11:25:34;;;;;;;8.18;6.53;;;11.10;99.90;;;;;;5017895;28;20044;-78
2023/04/09 11:28:03;;;;;;;9.25;7.68;;;11.10;99.90;;;;;;5020522;28;20042;-78
2023/04/09 11:30:30;;;;;;;7.95;6.40;;;11.30;99.90;;;;;;5020294;28;20132;-78
2023/04/09 11:32:57;;;;;;;8.25;6.63;;;11.30;99.90;;;;;;5022902;28;20511;-79
2023/04/09 11:35:24;;;;;;;9.38;7.32;;;11.30;99.90;;;;;;5027818;28;20045;-79
2023/04/09 11:37:51;;;;;;;7.60;6.80;;;11.30;99.90;;;;;;5019510;28;20085;-78
2023/04/09 11:40:20;;;;;;;8.70;6.28;;;11.30;99.90;;;;;;5023623;28;20077;-79
2023/04/09 11:42:52;;;;;;;10.50;8.45;;;11.30;99.90;;;;;;5021802;28;20483;-79
2023/04/09 11:45:24;;;;;;;23.48;16.30;;;11.30;99.90;;;;;;5021843;28;20499;-80
2023/04/09 11:47:51;;;;;;;6.95;5.80;;;11.40;99.90;;;;;;5021475;28;20129;-80
2023/04/09 11:50:19;;;;;;;39.95;27.17;;;11.50;99.90;;;;;;5024604;28;20041;-80
2023/04/09 11:52:47;;;;;;;26.88;20.33;;;11.50;99.90;;;;;;5022176;28;20096;-81
2023/04/09 11:55:25;;;;;;;8.65;7.00;;;11.60;99.90;;;;;;5022259;28;20049;-80
2023/04/09 11:57:56;;;;;;;7.57;5.95;;;11.60;99.90;;;;;;5026201;28;20065;-80
2023/04/09 12:00:23;;;;;;;26.42;15.75;;;11.60;99.90;;;;;;5021553;28;20204;-80
2023/04/09 12:02:59;;;;;;;18.25;11.40;;;11.70;99.90;;;;;;5026964;28;20046;-80
2023/04/09 12:05:33;;;;;;;49.03;30.90;;;11.70;99.90;;;;;;5024767;28;20072;-81
2023/04/09 12:08:07;;;;;;;17.95;11.43;;;11.80;99.90;;;;;;5020790;28;20080;-79
2023/04/09 12:10:37;;;;;;;4.90;4.40;;;11.80;99.90;;;;;;5020984;28;20049;-79
2023/04/09 12:13:05;;;;;;;;;;;11.90;99.90;;;;;;5025969;28;20057;-79
2023/04/09 12:15:34;;;;;;;4.60;3.58;;;12.00;99.90;;;;;;5021057;28;20069;-77
2023/04/09 12:18:01;;;;;;;4.45;3.60;;;12.10;99.90;;;;;;5024063;28;20084;-82
2023/04/09 12:20:36;;;;;;;4.43;3.63;;;12.10;99.90;;;;;;5040449;28;20132;-80
2023/04/09 12:23:05;;;;;;;4.70;4.10;;;12.10;99.90;;;;;;5025140;28;20073;-80
2023/04/09 12:25:34;;;;;;;4.57;3.95;;;12.20;99.90;;;;;;5019614;28;20228;-80
2023/04/09 12:28:02;;;;;;;3.17;2.85;;;12.10;99.90;;;;;;5027013;28;20477;-80
2023/04/09 12:30:28;;;;;;;3.88;3.03;;;12.20;99.90;;;;;;5023491;28;20069;-80
2023/04/09 12:32:55;;;;;;;3.90;3.35;;;12.30;99.90;;;;;;5032379;28;20053;-80
2023/04/09 12:35:22;;;;;;;3.70;3.35;;;12.30;99.90;;;;;;5035700;28;20075;-80
2023/04/09 12:37:50;;;;;;;4.22;3.75;;;12.30;99.90;;;;;;5031554;28;20068;-80
2023/04/09 12:40:17;;;;;;;4.85;3.67;;;12.40;99.90;;;;;;5023255;28;20276;-80
2023/04/09 12:42:45;;;;;;;4.00;3.38;;;12.40;99.90;;;;;;5022639;28;20140;-80
2023/04/09 12:45:14;;;;;;;3.33;2.83;;;12.40;99.90;;;;;;5023687;28;20112;-80
2023/04/09 12:47:42;;;;;;;5.10;3.75;;;12.40;99.90;;;;;;5019846;28;20073;-80